Hauptseite
METAR-TAF:

METAR-TAF

Flughäfen :

Awg-1, Niederlande

Bohrplattform

Breite: 53-29-30N, Länge: 5-56-30E, Höhe: 33 m

Beobachtung

Neuester Wetterbericht von vor 38 Minuten, um 18:25 UTC
Wind 19 kt aus Südwest
Temperatur 10°C
Luftfeuchtigkeit 100%
Luftdruck 1005 hPa
Sichtweite: 3000 m
Durchbrochene Bewölkung in der Höhe weniger als 100 ft
Durchbrochene Bewölkung in der Höhe von 300 ft
Durchbrochene Bewölkung in der Höhe von 600 ft
feuchter Dunst

METAR: EHMA 211825Z AUTO 23019KT 3000 BR BKN000 BKN003 BKN006 10/10 Q1005 REDZ

Zeit: 20:03 (19:03 UTC)


TAF: fehlend

Wetterbeobachtungen und Prognosen von mehr als 4000 Flughäfen (METAR und TAF Bericht).

Die verfügbaren Stationen werden durch gelbe und rote Markierungen auf der Karte dargestellt.

Führen Sie die Maus auf sie, um den Namen der Station zu sehen.

Darauf klicken, um die Beobachtung von Wetterbeobachtungen und Prognosen zu sehen.

Um die Karte zu ändern : klicken Sie auf den grünen Tasten mit einem schwarzen Kreuz Zum Vergrößern, auf den grünen Button mit einem Gedankenstrich zu verkleinern, oder auf die grünen Pfeile für benachbarte Karten.


METAR-TAF: